Albany, Oregon
Current Conditions -  °F | °C
As of 1:35 AM on Saturday 29 Nov 2014 (Local Time) from KCVO Reporting Station
Scattered Clouds Scattered Clouds  
Wind Chill:   Ceiling: Unl
Heat Index:   Visibility: 10mi
Dew Point:   Wind: 7mph
Humidity: 76%   Direction: 270°W
Pressure: 29.7"   Gusts: NA
Location:  44.64°N, 123.1°W
Report Text: KCVO 290935Z AUTO 27006KT 10SM FEW039 SCT046 SCT055 07/03 A2970 RMK AO1
Loading
Personal Weather Stations






























Interactive Weather Map New forecast layout! Learn more

10-Day Weather Forecast

Advertisements
Track Severe Weather on mobile